Time;durP1;ratioP1;P1;durP2;ratioP2;P2;SDS_P1;SDS_P2;PMS_P1;PMS_P2;Temp;Humidity;BMP_temperature;BMP_pressure;BME280_temperature;BME280_humidity;BME280_pressure;Samples;Min_cycle;Max_cycle;Signal;HPM_P1;HPM_P2
2023/06/18 00:02:20;;;;;;;5.85;5.25;;;20.40;1.00;;;;;;4932502;28;39117;-78
2023/06/18 00:04:46;;;;;;;8.15;5.28;;;20.40;35.40;;;;;;4950853;28;39145;-78
2023/06/18 00:07:12;;;;;;;9.70;5.38;;;20.40;95.90;;;;;;4948473;28;37793;-78
2023/06/18 00:09:38;;;;;;;8.43;5.93;;;20.30;1.00;;;;;;4942847;28;36885;-78
2023/06/18 00:12:05;;;;;;;10.32;5.93;;;20.30;1.00;;;;;;4947972;28;38640;-78
2023/06/18 00:14:31;;;;;;;9.55;6.07;;;20.30;99.90;;;;;;4949126;28;37291;-78
2023/06/18 00:16:57;;;;;;;7.60;5.55;;;20.20;74.80;;;;;;4930124;28;38219;-78
2023/06/18 00:19:23;;;;;;;6.65;5.95;;;20.20;99.90;;;;;;4925542;28;37484;-78
2023/06/18 00:21:49;;;;;;;7.10;5.72;;;20.20;99.90;;;;;;4931623;28;37769;-77
2023/06/18 00:24:15;;;;;;;7.47;5.85;;;20.10;99.90;;;;;;4929725;28;38639;-78
2023/06/18 00:26:41;;;;;;;7.00;6.07;;;20.10;1.00;;;;;;4931345;28;37348;-78
2023/06/18 00:29:07;;;;;;;10.20;5.82;;;20.00;1.00;;;;;;4947840;28;37956;-78
2023/06/18 00:31:33;;;;;;;8.88;6.78;;;20.00;1.00;;;;;;4947071;28;37597;-78
2023/06/18 00:34:06;;;;;;;8.90;6.05;;;20.00;1.00;;;;;;4923634;28;37537;-78
2023/06/18 00:36:33;;;;;;;6.70;5.93;;;20.00;1.00;;;;;;4930380;28;47214;-78
2023/06/18 00:39:03;;;;;;;7.13;6.30;;;20.00;1.00;;;;;;4950595;28;37053;-78
2023/06/18 00:41:31;;;;;;;7.72;5.60;;;20.00;1.00;;;;;;4928182;28;46811;-78
2023/06/18 00:43:58;;;;;;;7.18;6.43;;;20.00;1.00;;;;;;4928931;28;38573;-78
2023/06/18 00:46:30;;;;;;;7.80;6.80;;;19.80;1.00;;;;;;4944186;28;38371;-78
2023/06/18 00:48:57;;;;;;;;;;;19.80;1.00;;;;;;4933018;28;36419;-78
2023/06/18 00:51:26;;;;;;;8.82;6.35;;;19.90;1.00;;;;;;4947992;28;39256;-78
2023/06/18 00:53:54;;;;;;;7.97;6.43;;;19.80;1.00;;;;;;4930994;28;38525;-77
2023/06/18 00:56:22;;;;;;;7.55;6.75;;;19.80;1.00;;;;;;4926922;28;36889;-77
2023/06/18 00:58:48;;;;;;;9.07;6.18;;;19.80;1.00;;;;;;4942152;28;37262;-78
2023/06/18 01:03:50;;;;;;;8.82;6.55;;;19.70;1.00;;;;;;5070882;23;20047;-81
2023/06/18 01:06:19;;;;;;;12.30;6.53;;;19.60;1.00;;;;;;4924722;28;37751;-81
2023/06/18 01:08:48;;;;;;;9.40;6.50;;;19.60;1.00;;;;;;4926337;28;37434;-81
2023/06/18 01:11:18;;;;;;;9.05;6.93;;;19.60;1.00;;;;;;4921432;28;37985;-82
2023/06/18 01:13:45;;;;;;;7.38;6.68;;;19.50;1.00;;;;;;4942392;28;39137;-82
2023/06/18 01:16:13;;;;;;;7.53;6.82;;;19.50;1.00;;;;;;4927229;28;37116;-81
2023/06/18 01:18:44;;;;;;;7.93;7.22;;;19.40;1.00;;;;;;4926392;28;35938;-82
2023/06/18 01:21:15;;;;;;;7.90;6.80;;;19.30;1.00;;;;;;4943463;28;41056;-81
2023/06/18 01:24:16;;;;;;;8.00;7.25;;;19.20;1.00;;;;;;4945691;28;38291;-82
2023/06/18 01:26:44;;;;;;;8.27;7.38;;;19.20;1.00;;;;;;4948583;28;48439;-82
2023/06/18 01:29:12;;;;;;;8.18;7.28;;;19.20;1.00;;;;;;4946662;28;37217;-82
2023/06/18 01:31:42;;;;;;;9.38;7.30;;;19.10;1.00;;;;;;4938831;28;37900;-82
2023/06/18 01:34:08;;;;;;;9.82;7.05;;;19.00;1.00;;;;;;4945895;28;38320;-82
2023/06/18 01:37:05;;;;;;;11.55;8.02;;;19.00;1.00;;;;;;4931005;28;38473;-82
2023/06/18 01:39:37;;;;;;;10.15;7.53;;;18.90;1.00;;;;;;4921817;28;47207;-82
2023/06/18 01:42:24;;;;;;;8.20;7.30;;;18.80;1.00;;;;;;4932880;28;39035;-82
2023/06/18 01:44:57;;;;;;;9.60;7.57;;;18.80;1.00;;;;;;4925959;29;38209;-82
2023/06/18 01:47:26;;;;;;;9.02;7.22;;;18.70;1.00;;;;;;4929774;28;37121;-82
2023/06/18 01:49:55;;;;;;;8.88;7.22;;;18.60;1.00;;;;;;4925253;28;38233;-81
2023/06/18 01:52:24;;;;;;;9.68;8.07;;;18.60;1.00;;;;;;4924758;28;37870;-82
2023/06/18 01:54:51;;;;;;;11.68;8.10;;;18.60;1.00;;;;;;4925781;28;38355;-82
2023/06/18 01:57:18;;;;;;;9.25;7.28;;;18.60;1.00;;;;;;4928619;28;36807;-82
2023/06/18 01:59:44;;;;;;;10.40;7.45;;;18.50;1.00;;;;;;4931799;28;37362;-82
2023/06/18 02:02:12;;;;;;;11.32;7.72;;;18.50;1.00;;;;;;4927966;28;37748;-82
2023/06/18 02:04:43;;;;;;;8.98;8.07;;;18.50;1.00;;;;;;4933344;28;37269;-82
2023/06/18 02:07:11;;;;;;;9.40;8.23;;;18.50;1.00;;;;;;4927076;28;38318;-82
2023/06/18 02:09:38;;;;;;;9.10;8.20;;;18.50;1.00;;;;;;4927695;28;36057;-82
2023/06/18 02:12:05;;;;;;;8.43;7.60;;;18.40;1.00;;;;;;4946426;28;38489;-82
2023/06/18 02:14:31;;;;;;;10.65;7.85;;;18.40;1.00;;;;;;4931994;28;38040;-82
2023/06/18 02:16:57;;;;;;;9.20;8.02;;;18.40;1.00;;;;;;4928052;28;37204;-82
2023/06/18 02:19:23;;;;;;;8.88;7.97;;;18.30;1.00;;;;;;4937495;28;36237;-83
2023/06/18 02:21:49;;;;;;;9.40;8.48;;;18.30;1.00;;;;;;4931456;28;37611;-82
2023/06/18 02:24:16;;;;;;;8.18;7.40;;;18.30;1.00;;;;;;4946425;28;38598;-82
2023/06/18 02:26:42;;;;;;;8.65;7.75;;;18.30;1.00;;;;;;4949160;28;38821;-82
2023/06/18 02:29:08;;;;;;;10.52;8.27;;;18.30;1.00;;;;;;4949152;28;36710;-82
2023/06/18 02:31:34;;;;;;;9.23;8.25;;;18.20;1.00;;;;;;4931117;28;37726;-82
2023/06/18 02:34:00;;;;;;;9.57;8.57;;;18.20;1.00;;;;;;4945656;28;37568;-82
2023/06/18 02:36:27;;;;;;;10.07;8.40;;;18.20;1.00;;;;;;4945932;28;47506;-81
2023/06/18 02:38:53;;;;;;;11.70;8.65;;;18.10;1.00;;;;;;4948251;28;37259;-82
2023/06/18 02:41:20;;;;;;;10.63;8.68;;;18.10;1.00;;;;;;4940971;28;38229;-82
2023/06/18 02:43:49;;;;;;;11.90;8.50;;;18.10;1.00;;;;;;4944718;28;38631;-82
2023/06/18 02:46:16;;;;;;;10.70;8.85;;;18.10;1.00;;;;;;4943449;28;38850;-82
2023/06/18 02:48:42;;;;;;;9.43;8.52;;;18.00;1.00;;;;;;4942006;28;37376;-82
2023/06/18 02:51:08;;;;;;;10.57;7.80;;;18.00;1.00;;;;;;4921750;28;38687;-82
2023/06/18 02:53:34;;;;;;;10.23;8.60;;;18.00;1.00;;;;;;4927789;28;37763;-83
2023/06/18 02:56:01;;;;;;;10.45;9.32;;;18.00;1.00;;;;;;4928909;28;37040;-83
2023/06/18 02:58:30;;;;;;;10.27;8.68;;;18.00;1.00;;;;;;4928255;28;37023;-83
2023/06/18 03:00:59;;;;;;;10.70;9.60;;;18.10;1.00;;;;;;4922178;28;37669;-82
2023/06/18 03:03:26;;;;;;;10.38;9.25;;;18.00;1.00;;;;;;4928131;28;37289;-82
2023/06/18 03:05:53;;;;;;;10.05;9.05;;;18.00;1.00;;;;;;4929472;28;37483;-82
2023/06/18 03:08:20;;;;;;;12.38;9.55;;;18.00;1.00;;;;;;4928741;28;36062;-82
2023/06/18 03:10:46;;;;;;;11.55;8.82;;;17.90;1.80;;;;;;4930438;28;38388;-81
2023/06/18 03:13:12;;;;;;;9.90;8.88;;;17.90;1.00;;;;;;4949007;28;38964;-80
2023/06/18 03:15:39;;;;;;;11.88;9.20;;;17.90;1.40;;;;;;4931767;28;38532;-83
2023/06/18 03:18:05;;;;;;;10.30;9.15;;;17.80;1.80;;;;;;4924888;28;36154;-83
2023/06/18 03:20:32;;;;;;;10.25;9.23;;;17.80;9.00;;;;;;4932759;28;37741;-83
2023/06/18 03:22:58;;;;;;;9.85;8.90;;;17.80;14.40;;;;;;4933121;28;37347;-83
2023/06/18 03:25:24;;;;;;;11.80;9.05;;;17.80;15.40;;;;;;4933431;28;36995;-82
2023/06/18 03:27:50;;;;;;;9.40;8.50;;;17.80;13.30;;;;;;4928780;29;36476;-82
2023/06/18 03:30:17;;;;;;;12.00;9.52;;;17.80;11.70;;;;;;4947889;28;37567;-82
2023/06/18 03:32:43;;;;;;;9.80;8.70;;;17.80;11.40;;;;;;4932060;28;37578;-83
2023/06/18 03:35:09;;;;;;;10.73;9.35;;;17.80;2.10;;;;;;4943347;28;38042;-83
2023/06/18 03:37:36;;;;;;;10.65;8.73;;;18.00;1.00;;;;;;4938881;28;37061;-83
2023/06/18 03:40:03;;;;;;;12.43;9.40;;;18.20;1.00;;;;;;4925055;28;37632;-82
2023/06/18 03:42:30;;;;;;;9.55;8.55;;;18.20;1.00;;;;;;4930332;28;37352;-83
2023/06/18 03:44:56;;;;;;;11.40;9.15;;;18.20;1.00;;;;;;4929988;28;36864;-83
2023/06/18 03:47:22;;;;;;;9.70;8.48;;;18.30;1.00;;;;;;4934084;28;36590;-83
2023/06/18 03:49:48;;;;;;;12.82;9.27;;;18.30;1.00;;;;;;4943121;28;37842;-83
2023/06/18 03:52:14;;;;;;;13.82;8.65;;;18.40;1.00;;;;;;4945627;28;39138;-82
2023/06/18 03:54:41;;;;;;;11.68;9.05;;;18.50;1.00;;;;;;4941377;28;37990;-82
2023/06/18 03:57:08;;;;;;;11.57;8.27;;;18.50;1.00;;;;;;4950393;28;37620;-82
2023/06/18 03:59:34;;;;;;;9.82;8.75;;;18.50;1.00;;;;;;4948717;28;37700;-83
2023/06/18 04:02:00;;;;;;;9.00;8.02;;;18.60;1.00;;;;;;4946728;28;38597;-82
2023/06/18 04:04:26;;;;;;;10.57;9.07;;;18.80;1.00;;;;;;4927673;28;38620;-82
2023/06/18 04:06:53;;;;;;;10.38;8.52;;;18.90;1.00;;;;;;4922999;29;38937;-82
2023/06/18 04:09:19;;;;;;;8.43;7.53;;;18.90;1.00;;;;;;4932827;28;38885;-82
2023/06/18 04:11:45;;;;;;;13.02;9.20;;;19.00;1.00;;;;;;4954999;28;37559;-81
2023/06/18 04:14:12;;;;;;;10.73;8.20;;;18.90;1.00;;;;;;4946093;28;37043;-82
2023/06/18 04:16:38;;;;;;;13.57;9.10;;;18.80;1.00;;;;;;4949278;28;38570;-82
2023/06/18 04:19:04;;;;;;;14.00;8.90;;;18.70;1.00;;;;;;4949189;28;38944;-82
2023/06/18 04:21:30;;;;;;;10.13;8.68;;;18.70;1.00;;;;;;4948396;28;38211;-81
2023/06/18 04:23:59;;;;;;;11.77;8.88;;;18.80;1.00;;;;;;4949917;28;38332;-82
2023/06/18 04:26:26;;;;;;;12.73;9.02;;;18.70;1.00;;;;;;4930625;28;37419;-82
2023/06/18 04:28:52;;;;;;;10.15;8.55;;;18.80;1.00;;;;;;4931629;28;38217;-81
2023/06/18 04:31:18;;;;;;;10.50;8.63;;;18.90;1.00;;;;;;4947065;28;38338;-82
2023/06/18 04:33:45;;;;;;;12.20;8.70;;;18.90;1.00;;;;;;4938792;28;39148;-82
2023/06/18 04:36:14;;;;;;;10.65;9.13;;;19.00;1.00;;;;;;4945316;28;37087;-81
2023/06/18 04:38:41;;;;;;;9.43;8.52;;;19.00;1.00;;;;;;4952454;28;38666;-82
2023/06/18 04:41:07;;;;;;;14.25;9.60;;;19.20;1.00;;;;;;4944626;28;38225;-81
2023/06/18 04:43:33;;;;;;;11.40;9.88;;;19.40;1.00;;;;;;4931746;28;37239;-81
2023/06/18 04:46:00;;;;;;;11.05;8.80;;;19.50;1.00;;;;;;4930297;28;36543;-81
2023/06/18 04:48:27;;;;;;;12.88;9.02;;;19.70;1.00;;;;;;4944579;28;37011;-81
2023/06/18 04:50:53;;;;;;;11.48;8.50;;;19.80;1.00;;;;;;4932807;28;37780;-81
2023/06/18 04:53:19;;;;;;;10.70;8.88;;;19.90;1.00;;;;;;4948816;28;38940;-82
2023/06/18 04:55:45;;;;;;;10.23;8.95;;;20.00;1.00;;;;;;4945614;28;38114;-81
2023/06/18 04:58:13;;;;;;;11.15;8.32;;;19.90;1.00;;;;;;4930086;28;38045;-81
2023/06/18 05:00:39;;;;;;;11.45;9.05;;;20.00;1.00;;;;;;4926438;28;37464;-81
2023/06/18 05:03:05;;;;;;;11.23;8.85;;;20.10;1.00;;;;;;4945567;28;37772;-80
2023/06/18 05:05:31;;;;;;;9.60;8.02;;;20.10;1.00;;;;;;4930573;28;36301;-81
2023/06/18 05:07:57;;;;;;;9.43;8.30;;;20.20;1.00;;;;;;4924130;28;37656;-82
2023/06/18 05:10:23;;;;;;;10.85;8.65;;;20.20;1.00;;;;;;4925098;28;38935;-82
2023/06/18 05:12:49;;;;;;;12.52;8.38;;;20.20;1.00;;;;;;4946032;28;39363;-82
2023/06/18 05:15:16;;;;;;;12.07;8.27;;;20.20;1.00;;;;;;4944503;28;36480;-82
2023/06/18 05:17:42;;;;;;;12.68;8.27;;;20.30;1.00;;;;;;4931049;28;37824;-82
2023/06/18 05:20:08;;;;;;;11.30;8.07;;;20.40;1.00;;;;;;4929742;28;37535;-81
2023/06/18 05:22:34;;;;;;;9.57;8.15;;;20.30;1.00;;;;;;4946530;28;38027;-82
2023/06/18 05:25:01;;;;;;;11.95;8.60;;;20.30;1.00;;;;;;4927829;28;37405;-81
2023/06/18 05:27:28;;;;;;;9.40;8.40;;;20.10;1.00;;;;;;4931154;28;37741;-81
2023/06/18 05:29:54;;;;;;;15.10;10.57;;;20.10;1.00;;;;;;4926382;28;37204;-80
2023/06/18 05:32:21;;;;;;;10.77;9.38;;;20.00;1.00;;;;;;4937882;28;37074;-80
2023/06/18 05:34:47;;;;;;;11.63;9.60;;;20.00;80.20;;;;;;4930544;28;36067;-79
2023/06/18 05:37:14;;;;;;;11.00;9.90;;;20.10;1.00;;;;;;4947572;28;40169;-79
2023/06/18 05:39:40;;;;;;;12.43;9.45;;;19.90;1.00;;;;;;4943968;28;37492;-79
2023/06/18 05:42:07;;;;;;;11.93;9.32;;;20.00;79.40;;;;;;4929373;28;38400;-79
2023/06/18 05:44:33;;;;;;;9.93;8.63;;;20.10;1.00;;;;;;4928083;28;36598;-81
2023/06/18 05:46:59;;;;;;;17.00;9.27;;;20.10;99.90;;;;;;4927694;28;37692;-80
2023/06/18 05:49:26;;;;;;;11.68;8.77;;;20.10;99.90;;;;;;4946230;28;39521;-80
2023/06/18 05:51:52;;;;;;;12.43;9.68;;;20.00;5.50;;;;;;4948178;28;38091;-80
2023/06/18 05:54:18;;;;;;;10.90;8.45;;;20.00;1.00;;;;;;4942612;28;35696;-81
2023/06/18 05:56:45;;;;;;;12.65;8.73;;;20.10;1.00;;;;;;4950910;28;39016;-81
2023/06/18 05:59:11;;;;;;;10.60;8.65;;;20.10;1.00;;;;;;4950579;28;38401;-80
2023/06/18 06:01:37;;;;;;;10.73;8.50;;;20.00;1.00;;;;;;4933528;28;36707;-81
2023/06/18 06:04:04;;;;;;;11.70;9.30;;;20.00;1.00;;;;;;4947136;28;37289;-81
2023/06/18 06:06:30;;;;;;;13.05;9.80;;;20.00;1.00;;;;;;4946228;28;39743;-81
2023/06/18 06:08:56;;;;;;;12.90;9.23;;;19.90;1.00;;;;;;4931916;28;38887;-82
2023/06/18 06:11:22;;;;;;;12.57;9.32;;;19.80;1.00;;;;;;4945569;28;37401;-80
2023/06/18 06:13:48;;;;;;;10.23;9.10;;;19.70;1.00;;;;;;4930793;28;37006;-80
2023/06/18 06:16:15;;;;;;;10.82;9.18;;;19.80;1.00;;;;;;4948222;28;37557;-82
2023/06/18 06:18:41;;;;;;;10.55;9.45;;;19.80;1.00;;;;;;4948938;28;38318;-81
2023/06/18 06:21:07;;;;;;;13.25;10.15;;;19.70;1.00;;;;;;4953127;28;37314;-81
2023/06/18 06:23:33;;;;;;;10.75;9.65;;;19.80;1.00;;;;;;4929129;28;36580;-80
2023/06/18 06:25:59;;;;;;;11.30;8.82;;;19.80;1.00;;;;;;4933754;28;37717;-81
2023/06/18 06:28:26;;;;;;;10.50;9.40;;;20.00;1.00;;;;;;4944930;28;37625;-81
2023/06/18 06:30:52;;;;;;;12.88;10.38;;;20.00;1.00;;;;;;4926093;28;37719;-80
2023/06/18 06:33:18;;;;;;;12.15;10.43;;;20.10;1.00;;;;;;4944018;28;37142;-80
2023/06/18 06:35:45;;;;;;;12.18;10.52;;;20.10;1.00;;;;;;4945499;28;39864;-81
2023/06/18 06:38:11;;;;;;;11.63;10.00;;;20.10;1.00;;;;;;4914977;28;37394;-81
2023/06/18 06:40:38;;;;;;;10.55;9.55;;;20.20;1.00;;;;;;4926055;28;37566;-82
2023/06/18 06:43:05;;;;;;;12.32;10.07;;;20.20;1.00;;;;;;4930425;28;37623;-82
2023/06/18 06:45:31;;;;;;;9.90;8.82;;;20.20;1.00;;;;;;4951607;28;37953;-81
2023/06/18 06:47:58;;;;;;;16.08;10.68;;;20.30;1.00;;;;;;4929082;28;37413;-81
2023/06/18 06:50:24;;;;;;;13.93;9.70;;;20.40;1.00;;;;;;4928527;28;38760;-80
2023/06/18 06:52:51;;;;;;;11.93;9.57;;;20.40;1.00;;;;;;4933985;28;36373;-82
2023/06/18 06:55:17;;;;;;;11.90;10.65;;;20.40;1.00;;;;;;4934847;28;38897;-82
2023/06/18 06:57:43;;;;;;;11.02;9.93;;;20.50;1.00;;;;;;4936253;28;38382;-82
2023/06/18 07:00:10;;;;;;;12.15;10.85;;;20.60;1.00;;;;;;4956085;28;38309;-82
2023/06/18 07:02:37;;;;;;;11.95;9.93;;;20.80;99.90;;;;;;4917829;28;35950;-82
2023/06/18 07:05:04;;;;;;;11.35;10.18;;;20.90;1.00;;;;;;4911202;29;39586;-82
2023/06/18 07:07:30;;;;;;;17.48;10.75;;;21.00;1.00;;;;;;4910883;28;48956;-81
2023/06/18 07:09:56;;;;;;;13.13;10.27;;;21.10;99.90;;;;;;4912125;29;38530;-82
2023/06/18 07:12:22;;;;;;;13.93;10.00;;;21.20;1.00;;;;;;4913557;28;37228;-80
2023/06/18 07:14:48;;;;;;;13.32;9.73;;;21.40;1.00;;;;;;4911263;29;38710;-79
2023/06/18 07:17:14;;;;;;;12.50;9.70;;;21.50;1.00;;;;;;4909375;29;38737;-81
2023/06/18 07:19:41;;;;;;;12.98;9.68;;;21.60;99.90;;;;;;4907413;29;38082;-81
2023/06/18 07:22:07;;;;;;;12.65;9.32;;;21.80;1.00;;;;;;4899425;29;37497;-80
2023/06/18 07:24:33;;;;;;;10.45;9.38;;;21.90;1.00;;;;;;4898707;29;39164;-82
2023/06/18 07:26:59;;;;;;;11.60;10.45;;;21.90;99.90;;;;;;4899490;29;38658;-79
2023/06/18 07:29:25;;;;;;;13.93;10.40;;;21.80;99.90;;;;;;4908376;29;37134;-81
2023/06/18 07:31:52;;;;;;;15.30;10.18;;;21.80;1.00;;;;;;4898357;29;37558;-80
2023/06/18 07:34:18;;;;;;;15.80;10.52;;;21.90;1.00;;;;;;4903145;29;38289;-81
2023/06/18 07:36:44;;;;;;;13.98;9.75;;;21.90;99.90;;;;;;4908929;29;39760;-81
2023/06/18 07:39:10;;;;;;;9.60;8.68;;;21.80;1.00;;;;;;4907604;29;38181;-80
2023/06/18 07:41:36;;;;;;;11.45;9.60;;;22.00;17.00;;;;;;4912836;29;38037;-81
2023/06/18 07:44:02;;;;;;;12.45;10.15;;;22.20;99.90;;;;;;4909623;29;37469;-82
2023/06/18 07:46:28;;;;;;;14.82;10.25;;;22.20;1.00;;;;;;4909738;29;38100;-84
2023/06/18 07:48:55;;;;;;;11.15;9.32;;;22.20;1.00;;;;;;4908229;29;38348;-81
2023/06/18 07:51:21;;;;;;;15.85;11.05;;;22.10;1.00;;;;;;4909609;29;37599;-82
2023/06/18 07:53:47;;;;;;;12.43;9.77;;;22.10;33.00;;;;;;4927601;28;37614;-81
2023/06/18 07:56:13;;;;;;;11.13;10.02;;;22.10;1.00;;;;;;4903865;29;38077;-82
2023/06/18 07:58:39;;;;;;;12.40;10.98;;;22.20;99.90;;;;;;4909498;29;38357;-82
2023/06/18 08:01:05;;;;;;;13.20;10.20;;;22.10;1.00;;;;;;4911470;29;36560;-83
2023/06/18 08:03:31;;;;;;;12.73;10.82;;;22.20;1.00;;;;;;4910577;29;39152;-83
2023/06/18 08:05:57;;;;;;;14.77;10.15;;;22.20;99.90;;;;;;4911558;29;38256;-83
2023/06/18 08:08:23;;;;;;;11.23;10.00;;;22.20;51.80;;;;;;4912300;28;37101;-82
2023/06/18 08:10:50;;;;;;;12.98;11.13;;;22.20;99.90;;;;;;4912387;29;37278;-82
2023/06/18 08:13:16;;;;;;;15.77;11.02;;;22.10;99.90;;;;;;4901806;29;39873;-82
2023/06/18 08:15:42;;;;;;;16.13;10.68;;;22.00;1.00;;;;;;4921284;28;38656;-80
2023/06/18 08:18:08;;;;;;;13.85;12.27;;;22.00;99.90;;;;;;4920309;28;37011;-80
2023/06/18 08:20:35;;;;;;;12.70;11.48;;;22.00;1.00;;;;;;4906882;29;38639;-80
2023/06/18 08:23:01;;;;;;;11.60;10.45;;;22.00;1.00;;;;;;4902014;29;38201;-81
2023/06/18 08:25:27;;;;;;;14.20;11.68;;;21.90;99.90;;;;;;4898203;29;39280;-80
2023/06/18 08:27:54;;;;;;;12.57;10.85;;;21.90;1.00;;;;;;4906356;29;38360;-81
2023/06/18 08:30:21;;;;;;;14.90;10.40;;;21.90;99.90;;;;;;4902140;28;37368;-81
2023/06/18 08:32:47;;;;;;;12.95;10.13;;;21.90;99.90;;;;;;4892352;29;37756;-81
2023/06/18 08:35:13;;;;;;;11.88;10.43;;;21.90;99.90;;;;;;4900920;28;38297;-82
2023/06/18 08:37:40;;;;;;;11.90;10.30;;;22.00;99.90;;;;;;4905067;29;37889;-82
2023/06/18 08:40:08;;;;;;;18.17;9.90;;;22.00;1.00;;;;;;4903736;28;37322;-82
2023/06/18 08:42:34;;;;;;;12.13;9.50;;;22.00;1.00;;;;;;4903741;29;39215;-81
2023/06/18 08:45:00;;;;;;;11.13;9.98;;;22.00;1.00;;;;;;4904132;28;38045;-82
2023/06/18 08:47:28;;;;;;;13.52;10.02;;;22.00;1.00;;;;;;4906016;29;36888;-82
2023/06/18 08:49:57;;;;;;;11.85;10.25;;;22.00;1.00;;;;;;4893921;29;37203;-81
2023/06/18 08:52:25;;;;;;;11.63;10.43;;;22.10;1.00;;;;;;4888857;28;37503;-81
2023/06/18 08:54:56;;;;;;;11.20;9.90;;;22.20;99.90;;;;;;4922184;28;36100;-81
2023/06/18 08:57:44;;;;;;;12.30;9.30;;;22.20;1.00;;;;;;4887300;29;38632;-84
2023/06/18 09:00:11;;;;;;;13.98;11.90;;;22.30;1.00;;;;;;4903111;29;36237;-84
2023/06/18 09:02:37;;;;;;;12.20;10.85;;;22.20;1.00;;;;;;4914285;28;38460;-84
2023/06/18 09:05:05;;;;;;;12.98;10.60;;;22.10;1.00;;;;;;4924478;28;37215;-83
2023/06/18 09:07:31;;;;;;;12.23;9.90;;;22.10;1.00;;;;;;4944497;28;47329;-84
2023/06/18 09:09:58;;;;;;;11.95;10.70;;;22.20;1.00;;;;;;4946996;28;37494;-84
2023/06/18 09:12:24;;;;;;;12.23;10.48;;;22.10;99.90;;;;;;4937997;28;38009;-88
2023/06/18 09:14:50;;;;;;;12.50;10.50;;;22.20;1.00;;;;;;4944242;28;39001;-86
2023/06/18 09:17:16;;;;;;;10.95;9.85;;;22.30;99.90;;;;;;4925233;28;38256;-86
2023/06/18 09:19:44;;;;;;;10.40;9.40;;;22.30;1.00;;;;;;4948221;28;38111;-84
2023/06/18 09:22:14;;;;;;;10.85;9.48;;;22.30;99.90;;;;;;4927792;28;39233;-82
2023/06/18 09:24:41;;;;;;;11.52;9.70;;;22.30;99.90;;;;;;4943026;28;38543;-84
2023/06/18 09:27:07;;;;;;;12.48;9.95;;;22.40;99.90;;;;;;4947635;28;37881;-86
2023/06/18 09:29:36;;;;;;;13.48;9.68;;;22.30;99.90;;;;;;4926712;28;38116;-84
2023/06/18 09:32:13;;;;;;;10.50;9.15;;;22.30;99.90;;;;;;4930653;28;38169;-83
2023/06/18 09:34:40;;;;;;;10.43;8.43;;;22.30;1.00;;;;;;4941127;28;38434;-83
2023/06/18 09:37:08;;;;;;;9.27;8.25;;;22.40;1.00;;;;;;4930178;28;38319;-83
2023/06/18 09:39:35;;;;;;;9.63;8.05;;;22.50;1.00;;;;;;4941850;28;38208;-80
2023/06/18 09:42:13;;;;;;;11.98;8.73;;;22.50;1.00;;;;;;4923273;28;39104;-82
2023/06/18 09:44:45;;;;;;;9.77;7.38;;;22.50;1.00;;;;;;4941648;28;38769;-80
2023/06/18 09:47:13;;;;;;;10.88;8.77;;;22.60;1.00;;;;;;4924940;28;37918;-83
2023/06/18 09:49:42;;;;;;;9.95;8.18;;;22.60;1.00;;;;;;4922922;28;37762;-84
2023/06/18 09:52:08;;;;;;;9.20;8.35;;;22.60;1.00;;;;;;4922100;28;39195;-85
2023/06/18 09:54:40;;;;;;;8.68;7.72;;;22.40;1.00;;;;;;4931342;28;37630;-83
2023/06/18 09:57:08;;;;;;;11.27;8.77;;;22.30;1.00;;;;;;4946187;28;38354;-78
2023/06/18 09:59:35;;;;;;;10.57;8.00;;;22.10;1.00;;;;;;4926642;28;36319;-80
2023/06/18 10:02:01;;;;;;;9.25;6.97;;;22.10;1.00;;;;;;4925806;28;37849;-83
2023/06/18 10:04:28;;;;;;;8.30;7.43;;;22.20;1.00;;;;;;4944716;28;46857;-83
2023/06/18 10:06:58;;;;;;;7.85;7.10;;;22.10;99.90;;;;;;4921784;28;38521;-83
2023/06/18 10:09:32;;;;;;;7.70;7.00;;;22.20;1.00;;;;;;4946033;28;36423;-83
2023/06/18 10:12:01;;;;;;;8.30;7.43;;;22.20;1.00;;;;;;4949049;28;39654;-83
2023/06/18 10:14:29;;;;;;;8.45;7.22;;;22.40;99.90;;;;;;4928362;28;47116;-81
2023/06/18 10:17:09;;;;;;;8.45;7.18;;;22.40;99.90;;;;;;4940695;28;38156;-80
2023/06/18 10:19:52;;;;;;;7.55;6.80;;;22.40;1.00;;;;;;4944134;28;47689;-79
2023/06/18 10:22:19;;;;;;;8.30;6.60;;;22.30;1.00;;;;;;4935909;28;38724;-81
2023/06/18 10:25:05;;;;;;;7.97;7.13;;;22.30;99.90;;;;;;4925055;28;37582;-81
2023/06/18 10:27:32;;;;;;;8.13;6.82;;;22.40;99.90;;;;;;4920820;28;47318;-81
2023/06/18 10:29:59;;;;;;;8.57;6.90;;;22.60;99.90;;;;;;4930750;28;36286;-83
2023/06/18 10:32:27;;;;;;;8.55;7.43;;;22.70;1.00;;;;;;4939424;28;38800;-83
2023/06/18 10:34:58;;;;;;;8.73;6.35;;;22.90;99.90;;;;;;4920909;28;37569;-82
2023/06/18 10:37:26;;;;;;;6.85;6.13;;;23.10;37.60;;;;;;4920030;28;37360;-81
2023/06/18 10:39:53;;;;;;;7.20;6.53;;;23.40;23.30;;;;;;4935353;28;36998;-82
2023/06/18 10:42:20;;;;;;;6.72;6.13;;;23.50;1.00;;;;;;4921536;28;37797;-79
2023/06/18 10:44:57;;;;;;;7.45;6.43;;;23.50;99.90;;;;;;4945091;28;38335;-83
2023/06/18 10:47:29;;;;;;;7.97;7.20;;;23.60;99.90;;;;;;4922428;28;36843;-81
2023/06/18 10:50:04;;;;;;;8.03;6.70;;;23.70;1.00;;;;;;4941017;28;37401;-81
2023/06/18 10:52:31;;;;;;;8.68;7.78;;;23.70;99.90;;;;;;4941913;28;48308;-82
2023/06/18 10:55:14;;;;;;;8.27;7.43;;;23.60;1.00;;;;;;4948335;28;38846;-81
2023/06/18 10:57:44;;;;;;;9.15;7.55;;;23.70;99.90;;;;;;4945509;28;48829;-81
2023/06/18 11:00:21;;;;;;;9.68;8.68;;;23.80;99.90;;;;;;4946186;28;37492;-82
2023/06/18 11:02:50;;;;;;;9.48;8.57;;;23.70;1.00;;;;;;4935116;28;48800;-81
2023/06/18 11:05:42;;;;;;;8.05;7.28;;;23.70;1.00;;;;;;4941366;28;38377;-82
2023/06/18 11:08:09;;;;;;;;;;;23.60;1.00;;;;;;4942095;28;38861;-81
2023/06/18 11:11:01;;;;;;;8.25;7.45;;;23.40;99.90;;;;;;4945713;28;37391;-81
2023/06/18 11:13:36;;;;;;;6.82;5.90;;;23.30;1.00;;;;;;4911991;28;47133;-81
2023/06/18 11:16:05;;;;;;;7.25;6.50;;;23.40;1.00;;;;;;4944701;28;38729;-81
2023/06/18 11:18:32;;;;;;;6.20;5.60;;;23.40;1.00;;;;;;4924492;28;38360;-82
2023/06/18 11:21:02;;;;;;;7.20;6.53;;;23.50;35.00;;;;;;4944931;28;37254;-82
2023/06/18 11:23:29;;;;;;;8.30;6.90;;;23.50;99.90;;;;;;4928832;28;47284;-81
2023/06/18 11:25:55;;;;;;;7.70;7.00;;;23.40;99.90;;;;;;4927202;28;38376;-81
2023/06/18 11:28:24;;;;;;;8.18;7.38;;;23.40;1.00;;;;;;4942873;28;38378;-81
2023/06/18 11:30:53;;;;;;;8.25;6.15;;;23.50;99.90;;;;;;4940986;28;37839;-80
2023/06/18 11:33:26;;;;;;;7.30;6.60;;;23.60;42.90;;;;;;4945088;28;38641;-79
2023/06/18 11:35:53;;;;;;;6.60;5.88;;;23.70;1.00;;;;;;4951579;28;39585;-79
2023/06/18 11:38:22;;;;;;;9.70;6.50;;;23.60;1.00;;;;;;4945941;28;36578;-79
2023/06/18 11:40:52;;;;;;;5.47;4.97;;;23.70;99.90;;;;;;4949586;28;36970;-79
2023/06/18 11:43:20;;;;;;;6.05;5.00;;;23.80;99.30;;;;;;4928508;28;37708;-79
2023/06/18 11:45:50;;;;;;;8.20;5.55;;;24.00;99.90;;;;;;4939853;28;38280;-79
2023/06/18 11:48:19;;;;;;;6.55;5.93;;;24.00;1.00;;;;;;4925383;28;38076;-79
2023/06/18 11:50:53;;;;;;;7.43;6.50;;;24.00;99.90;;;;;;4937538;28;38197;-79
2023/06/18 11:53:23;;;;;;;8.88;4.90;;;23.90;99.90;;;;;;4906094;28;37758;-80
2023/06/18 11:55:53;;;;;;;6.50;4.85;;;24.10;99.90;;;;;;4925645;28;37266;-78
2023/06/18 11:58:20;;;;;;;5.18;4.68;;;24.10;1.00;;;;;;4942231;28;36659;-79
2023/06/18 12:00:46;;;;;;;6.38;4.40;;;24.20;99.90;;;;;;4942741;28;37073;-78
2023/06/18 12:03:13;;;;;;;6.15;5.50;;;24.20;99.90;;;;;;4948841;28;38465;-78
2023/06/18 12:05:39;;;;;;;5.85;5.35;;;24.10;1.00;;;;;;4940179;28;38638;-78
2023/06/18 12:08:13;;;;;;;5.93;5.38;;;24.10;1.00;;;;;;4944401;28;39054;-79
2023/06/18 12:10:42;;;;;;;6.22;5.63;;;24.30;1.00;;;;;;4930364;28;36401;-78
2023/06/18 12:13:28;;;;;;;9.88;6.50;;;24.30;1.00;;;;;;4929661;28;38672;-79
2023/06/18 12:16:07;;;;;;;8.25;6.72;;;24.10;1.00;;;;;;4936961;28;38958;-78
2023/06/18 12:18:41;;;;;;;6.80;6.05;;;24.00;4.80;;;;;;4934233;28;47261;-79
2023/06/18 12:21:07;;;;;;;9.27;7.18;;;24.00;1.00;;;;;;4948898;28;37276;-78
2023/06/18 12:23:37;;;;;;;8.93;6.60;;;23.90;99.90;;;;;;4930650;28;37807;-78
2023/06/18 12:26:04;;;;;;;7.78;5.55;;;23.90;99.90;;;;;;4929980;28;37273;-78
2023/06/18 12:28:33;;;;;;;6.90;5.80;;;23.80;72.30;;;;;;4931231;28;37270;-79
2023/06/18 12:31:07;;;;;;;7.97;5.70;;;23.90;1.00;;;;;;4948370;28;37328;-78
2023/06/18 12:33:43;;;;;;;5.93;5.40;;;23.90;1.00;;;;;;4921985;28;47209;-79
2023/06/18 12:36:10;;;;;;;6.68;6.10;;;24.10;99.90;;;;;;4940611;28;37454;-79
2023/06/18 12:38:43;;;;;;;12.02;6.43;;;24.10;93.70;;;;;;4930681;28;37407;-79
2023/06/18 12:41:10;;;;;;;6.75;5.70;;;24.30;1.00;;;;;;4944462;28;37821;-77
2023/06/18 12:43:41;;;;;;;8.00;5.20;;;24.50;99.90;;;;;;4940858;28;38640;-79
2023/06/18 12:46:07;;;;;;;6.57;5.97;;;24.50;1.00;;;;;;4925680;28;38345;-78
2023/06/18 12:48:40;;;;;;;5.90;5.28;;;24.50;99.90;;;;;;4931415;28;37235;-80
2023/06/18 12:51:07;;;;;;;7.35;5.88;;;24.40;1.00;;;;;;4957116;28;37431;-78
2023/06/18 12:53:34;;;;;;;6.55;5.57;;;24.40;1.00;;;;;;4942871;28;40092;-79
2023/06/18 12:56:18;;;;;;;5.97;5.38;;;24.40;1.00;;;;;;4941002;28;38091;-79